sensor_id;sensor_type;location;lat;lon;timestamp;temperature;humidity
3980;DHT22;2004;52.452;13.120;2022-12-07T00:03:27;2.70;99.90
3980;DHT22;2004;52.452;13.120;2022-12-07T00:11:20;2.60;99.90
3980;DHT22;2004;52.452;13.120;2022-12-07T00:19:12;2.50;99.90
3980;DHT22;2004;52.452;13.120;2022-12-07T00:27:03;2.40;99.90
3980;DHT22;2004;52.452;13.120;2022-12-07T00:34:53;2.30;99.90
3980;DHT22;2004;52.452;13.120;2022-12-07T00:42:44;2.30;99.90
3980;DHT22;2004;52.452;13.120;2022-12-07T00:50:34;2.20;99.90
3980;DHT22;2004;52.452;13.120;2022-12-07T00:58:25;2.20;99.90
3980;DHT22;2004;52.452;13.120;2022-12-07T01:06:17;2.20;99.90
3980;DHT22;2004;52.452;13.120;2022-12-07T01:14:08;2.10;99.90
3980;DHT22;2004;52.452;13.120;2022-12-07T01:21:59;2.10;99.90
3980;DHT22;2004;52.452;13.120;2022-12-07T01:29:50;2.10;99.90
3980;DHT22;2004;52.452;13.120;2022-12-07T01:37:41;2.10;99.90
3980;DHT22;2004;52.452;13.120;2022-12-07T01:45:40;2.10;99.90
3980;DHT22;2004;52.452;13.120;2022-12-07T01:53:32;2.10;99.90
3980;DHT22;2004;52.452;13.120;2022-12-07T02:01:25;2.10;99.90
3980;DHT22;2004;52.452;13.120;2022-12-07T02:09:15;2.00;99.90
3980;DHT22;2004;52.452;13.120;2022-12-07T02:17:24;2.00;99.90
3980;DHT22;2004;52.452;13.120;2022-12-07T02:33:35;1.90;99.90
3980;DHT22;2004;52.452;13.120;2022-12-07T02:49:22;1.90;99.90
3980;DHT22;2004;52.452;13.120;2022-12-07T02:57:42;1.90;99.90
3980;DHT22;2004;52.452;13.120;2022-12-07T03:05:52;2.00;99.90
3980;DHT22;2004;52.452;13.120;2022-12-07T03:13:54;2.00;99.90
3980;DHT22;2004;52.452;13.120;2022-12-07T03:21:59;2.00;99.90
3980;DHT22;2004;52.452;13.120;2022-12-07T03:29:58;2.00;99.90
3980;DHT22;2004;52.452;13.120;2022-12-07T03:38:00;2.10;99.90
3980;DHT22;2004;52.452;13.120;2022-12-07T03:46:08;2.10;99.90
3980;DHT22;2004;52.452;13.120;2022-12-07T03:54:32;2.20;99.90
3980;DHT22;2004;52.452;13.120;2022-12-07T04:02:26;2.10;99.90
3980;DHT22;2004;52.452;13.120;2022-12-07T04:10:18;2.10;99.90
3980;DHT22;2004;52.452;13.120;2022-12-07T04:18:08;2.10;99.90
3980;DHT22;2004;52.452;13.120;2022-12-07T04:25:59;2.10;99.90
3980;DHT22;2004;52.452;13.120;2022-12-07T04:33:49;2.20;99.90
3980;DHT22;2004;52.452;13.120;2022-12-07T04:41:40;2.20;99.90
3980;DHT22;2004;52.452;13.120;2022-12-07T04:49:30;2.20;99.90
3980;DHT22;2004;52.452;13.120;2022-12-07T04:57:21;2.30;99.90
3980;DHT22;2004;52.452;13.120;2022-12-07T05:05:11;2.30;99.90
3980;DHT22;2004;52.452;13.120;2022-12-07T05:13:02;2.40;99.90
3980;DHT22;2004;52.452;13.120;2022-12-07T05:20:52;2.40;99.90
3980;DHT22;2004;52.452;13.120;2022-12-07T05:28:43;2.50;99.90
3980;DHT22;2004;52.452;13.120;2022-12-07T05:36:33;2.50;99.90
3980;DHT22;2004;52.452;13.120;2022-12-07T05:44:24;2.60;99.90
3980;DHT22;2004;52.452;13.120;2022-12-07T05:52:14;2.60;99.90
3980;DHT22;2004;52.452;13.120;2022-12-07T06:00:06;2.70;99.90
3980;DHT22;2004;52.452;13.120;2022-12-07T06:07:56;2.80;99.90
3980;DHT22;2004;52.452;13.120;2022-12-07T06:15:47;2.80;99.90
3980;DHT22;2004;52.452;13.120;2022-12-07T06:23:37;2.90;99.90
3980;DHT22;2004;52.452;13.120;2022-12-07T06:31:28;2.90;99.90
3980;DHT22;2004;52.452;13.120;2022-12-07T06:39:21;3.00;99.90
3980;DHT22;2004;52.452;13.120;2022-12-07T06:47:12;3.00;99.90
3980;DHT22;2004;52.452;13.120;2022-12-07T06:55:03;3.10;99.90
3980;DHT22;2004;52.452;13.120;2022-12-07T07:02:53;3.10;99.90
3980;DHT22;2004;52.452;13.120;2022-12-07T07:10:44;3.20;99.90
3980;DHT22;2004;52.452;13.120;2022-12-07T07:18:34;3.10;99.90
3980;DHT22;2004;52.452;13.120;2022-12-07T07:26:25;3.20;99.90
3980;DHT22;2004;52.452;13.120;2022-12-07T07:34:15;3.20;99.90
3980;DHT22;2004;52.452;13.120;2022-12-07T07:42:06;3.30;99.90
3980;DHT22;2004;52.452;13.120;2022-12-07T07:49:57;3.30;99.90
3980;DHT22;2004;52.452;13.120;2022-12-07T07:57:48;3.30;99.90
3980;DHT22;2004;52.452;13.120;2022-12-07T08:05:38;3.30;99.90
3980;DHT22;2004;52.452;13.120;2022-12-07T08:13:29;3.30;99.90
3980;DHT22;2004;52.452;13.120;2022-12-07T08:21:20;3.30;99.90
3980;DHT22;2004;52.452;13.120;2022-12-07T08:29:10;3.30;99.90
3980;DHT22;2004;52.452;13.120;2022-12-07T08:37:01;3.40;99.90
3980;DHT22;2004;52.452;13.120;2022-12-07T08:44:51;3.40;99.90
3980;DHT22;2004;52.452;13.120;2022-12-07T08:52:42;3.30;99.90
3980;DHT22;2004;52.452;13.120;2022-12-07T09:00:33;3.30;99.90
3980;DHT22;2004;52.452;13.120;2022-12-07T09:08:29;3.30;99.90
3980;DHT22;2004;52.452;13.120;2022-12-07T09:16:20;3.30;99.90
3980;DHT22;2004;52.452;13.120;2022-12-07T09:24:12;3.30;99.90
3980;DHT22;2004;52.452;13.120;2022-12-07T09:32:03;3.30;99.90
3980;DHT22;2004;52.452;13.120;2022-12-07T09:39:54;3.30;99.90
3980;DHT22;2004;52.452;13.120;2022-12-07T09:47:45;3.20;99.90
3980;DHT22;2004;52.452;13.120;2022-12-07T09:55:36;3.20;99.90
3980;DHT22;2004;52.452;13.120;2022-12-07T10:03:28;3.20;99.90
3980;DHT22;2004;52.452;13.120;2022-12-07T10:11:19;3.20;99.90
3980;DHT22;2004;52.452;13.120;2022-12-07T10:19:24;3.20;99.90
3980;DHT22;2004;52.452;13.120;2022-12-07T10:27:26;3.20;99.90
3980;DHT22;2004;52.452;13.120;2022-12-07T10:35:29;3.30;99.90
3980;DHT22;2004;52.452;13.120;2022-12-07T10:43:20;3.40;99.90
3980;DHT22;2004;52.452;13.120;2022-12-07T10:51:23;3.50;99.90
3980;DHT22;2004;52.452;13.120;2022-12-07T11:08:01;3.50;99.90
3980;DHT22;2004;52.452;13.120;2022-12-07T11:16:21;3.50;99.90
3980;DHT22;2004;52.452;13.120;2022-12-07T11:24:17;3.60;99.90
3980;DHT22;2004;52.452;13.120;2022-12-07T11:40:31;3.60;99.90
3980;DHT22;2004;52.452;13.120;2022-12-07T11:48:34;3.70;99.90
3980;DHT22;2004;52.452;13.120;2022-12-07T11:56:27;3.70;99.90
3980;DHT22;2004;52.452;13.120;2022-12-07T12:04:47;3.80;99.90
3980;DHT22;2004;52.452;13.120;2022-12-07T12:12:59;3.90;99.90
3980;DHT22;2004;52.452;13.120;2022-12-07T12:21:00;3.90;99.90
3980;DHT22;2004;52.452;13.120;2022-12-07T12:36:49;4.00;99.90
3980;DHT22;2004;52.452;13.120;2022-12-07T12:44:40;4.10;99.90
3980;DHT22;2004;52.452;13.120;2022-12-07T13:00:31;4.20;99.90
3980;DHT22;2004;52.452;13.120;2022-12-07T13:08:24;4.30;99.90
3980;DHT22;2004;52.452;13.120;2022-12-07T13:24:10;4.30;99.90
3980;DHT22;2004;52.452;13.120;2022-12-07T13:32:02;4.30;99.90
3980;DHT22;2004;52.452;13.120;2022-12-07T13:39:55;4.30;99.90
3980;DHT22;2004;52.452;13.120;2022-12-07T13:47:52;4.30;99.90
3980;DHT22;2004;52.452;13.120;2022-12-07T13:55:47;4.20;99.90
3980;DHT22;2004;52.452;13.120;2022-12-07T14:03:38;4.20;99.90
3980;DHT22;2004;52.452;13.120;2022-12-07T14:11:29;4.20;99.90
3980;DHT22;2004;52.452;13.120;2022-12-07T14:27:35;4.10;99.90
3980;DHT22;2004;52.452;13.120;2022-12-07T14:35:27;4.10;99.90
3980;DHT22;2004;52.452;13.120;2022-12-07T14:43:18;4.00;99.90
3980;DHT22;2004;52.452;13.120;2022-12-07T14:51:12;4.00;99.90
3980;DHT22;2004;52.452;13.120;2022-12-07T14:59:02;3.90;99.90
3980;DHT22;2004;52.452;13.120;2022-12-07T15:06:58;3.80;99.90
3980;DHT22;2004;52.452;13.120;2022-12-07T15:14:48;3.80;99.90
3980;DHT22;2004;52.452;13.120;2022-12-07T15:22:39;3.80;99.90
3980;DHT22;2004;52.452;13.120;2022-12-07T15:30:29;3.70;99.90
3980;DHT22;2004;52.452;13.120;2022-12-07T15:38:20;3.70;99.90
3980;DHT22;2004;52.452;13.120;2022-12-07T15:46:10;3.60;99.90
3980;DHT22;2004;52.452;13.120;2022-12-07T15:54:01;3.50;99.90
3980;DHT22;2004;52.452;13.120;2022-12-07T16:01:51;3.50;99.90
3980;DHT22;2004;52.452;13.120;2022-12-07T16:09:43;3.40;99.90
3980;DHT22;2004;52.452;13.120;2022-12-07T16:17:33;3.30;99.90
3980;DHT22;2004;52.452;13.120;2022-12-07T16:25:24;3.30;99.90
3980;DHT22;2004;52.452;13.120;2022-12-07T16:33:14;3.20;99.90
3980;DHT22;2004;52.452;13.120;2022-12-07T16:41:06;3.20;99.90
3980;DHT22;2004;52.452;13.120;2022-12-07T16:48:57;3.10;99.90
3980;DHT22;2004;52.452;13.120;2022-12-07T16:56:48;3.10;99.90
3980;DHT22;2004;52.452;13.120;2022-12-07T17:04:38;3.10;99.90
3980;DHT22;2004;52.452;13.120;2022-12-07T17:12:32;3.00;99.90
3980;DHT22;2004;52.452;13.120;2022-12-07T17:20:25;3.00;99.90
3980;DHT22;2004;52.452;13.120;2022-12-07T17:28:15;2.90;99.90
3980;DHT22;2004;52.452;13.120;2022-12-07T17:36:21;2.80;99.90
3980;DHT22;2004;52.452;13.120;2022-12-07T17:44:14;2.80;99.90
3980;DHT22;2004;52.452;13.120;2022-12-07T17:52:05;2.70;99.90
3980;DHT22;2004;52.452;13.120;2022-12-07T18:00:15;2.70;99.90
3980;DHT22;2004;52.452;13.120;2022-12-07T18:08:05;2.70;99.90
3980;DHT22;2004;52.452;13.120;2022-12-07T18:15:56;2.60;99.90
3980;DHT22;2004;52.452;13.120;2022-12-07T18:23:49;2.50;99.90
3980;DHT22;2004;52.452;13.120;2022-12-07T18:31:40;2.50;99.90
3980;DHT22;2004;52.452;13.120;2022-12-07T18:39:31;2.40;99.90
3980;DHT22;2004;52.452;13.120;2022-12-07T18:47:21;2.40;99.90
3980;DHT22;2004;52.452;13.120;2022-12-07T18:55:12;2.40;99.90
3980;DHT22;2004;52.452;13.120;2022-12-07T19:03:02;2.40;99.90
3980;DHT22;2004;52.452;13.120;2022-12-07T19:10:53;2.30;99.90
3980;DHT22;2004;52.452;13.120;2022-12-07T19:18:43;2.30;99.90
3980;DHT22;2004;52.452;13.120;2022-12-07T19:26:34;2.20;99.90
3980;DHT22;2004;52.452;13.120;2022-12-07T19:34:25;2.20;99.90
3980;DHT22;2004;52.452;13.120;2022-12-07T19:42:15;2.20;99.90
3980;DHT22;2004;52.452;13.120;2022-12-07T19:50:06;2.20;99.90
3980;DHT22;2004;52.452;13.120;2022-12-07T19:57:57;2.10;99.90
3980;DHT22;2004;52.452;13.120;2022-12-07T20:05:47;2.10;99.90
3980;DHT22;2004;52.452;13.120;2022-12-07T20:13:38;2.10;99.90
3980;DHT22;2004;52.452;13.120;2022-12-07T20:21:28;2.00;99.90
3980;DHT22;2004;52.452;13.120;2022-12-07T20:29:23;1.90;99.90
3980;DHT22;2004;52.452;13.120;2022-12-07T20:37:14;1.90;99.90
3980;DHT22;2004;52.452;13.120;2022-12-07T20:45:05;1.80;99.90
3980;DHT22;2004;52.452;13.120;2022-12-07T20:52:58;1.80;99.90
3980;DHT22;2004;52.452;13.120;2022-12-07T21:00:48;1.70;99.90
3980;DHT22;2004;52.452;13.120;2022-12-07T21:08:46;1.70;99.90
3980;DHT22;2004;52.452;13.120;2022-12-07T21:16:37;1.60;99.90
3980;DHT22;2004;52.452;13.120;2022-12-07T21:24:27;1.60;99.90
3980;DHT22;2004;52.452;13.120;2022-12-07T21:32:18;1.50;99.90
3980;DHT22;2004;52.452;13.120;2022-12-07T21:40:09;1.50;99.90
3980;DHT22;2004;52.452;13.120;2022-12-07T21:47:59;1.40;99.90
3980;DHT22;2004;52.452;13.120;2022-12-07T21:55:50;1.40;99.90
3980;DHT22;2004;52.452;13.120;2022-12-07T22:03:40;1.30;99.90
3980;DHT22;2004;52.452;13.120;2022-12-07T22:11:31;1.30;99.90
3980;DHT22;2004;52.452;13.120;2022-12-07T22:19:22;1.20;99.90
3980;DHT22;2004;52.452;13.120;2022-12-07T22:27:13;1.20;99.90
3980;DHT22;2004;52.452;13.120;2022-12-07T22:35:04;1.10;99.90
3980;DHT22;2004;52.452;13.120;2022-12-07T22:42:55;1.10;99.90
3980;DHT22;2004;52.452;13.120;2022-12-07T22:50:47;1.10;99.90
3980;DHT22;2004;52.452;13.120;2022-12-07T22:58:38;1.20;99.90
3980;DHT22;2004;52.452;13.120;2022-12-07T23:06:31;1.10;99.90
3980;DHT22;2004;52.452;13.120;2022-12-07T23:14:27;1.20;99.90
3980;DHT22;2004;52.452;13.120;2022-12-07T23:22:17;1.20;99.90
3980;DHT22;2004;52.452;13.120;2022-12-07T23:30:08;1.20;99.90
3980;DHT22;2004;52.452;13.120;2022-12-07T23:37:59;1.20;99.90
3980;DHT22;2004;52.452;13.120;2022-12-07T23:45:49;1.20;99.90
3980;DHT22;2004;52.452;13.120;2022-12-07T23:53:43;1.20;99.90
